sensor_id;sensor_type;location;lat;lon;timestamp;P1;durP1;ratioP1;P2;durP2;ratioP2
41663;SDS011;27353;50.906;7.248;2022-08-03T00:01:37;5.10;;;3.05;;
41663;SDS011;27353;50.906;7.248;2022-08-03T00:04:05;6.43;;;3.13;;
41663;SDS011;27353;50.906;7.248;2022-08-03T00:06:32;3.28;;;2.80;;
41663;SDS011;27353;50.906;7.248;2022-08-03T00:08:58;3.83;;;3.40;;
41663;SDS011;27353;50.906;7.248;2022-08-03T00:11:23;4.82;;;3.75;;
41663;SDS011;27353;50.906;7.248;2022-08-03T00:13:50;5.15;;;3.13;;
41663;SDS011;27353;50.906;7.248;2022-08-03T00:16:16;7.28;;;3.58;;
41663;SDS011;27353;50.906;7.248;2022-08-03T00:18:41;4.70;;;2.92;;
41663;SDS011;27353;50.906;7.248;2022-08-03T00:21:07;4.10;;;2.78;;
41663;SDS011;27353;50.906;7.248;2022-08-03T00:23:33;6.28;;;3.28;;
41663;SDS011;27353;50.906;7.248;2022-08-03T00:25:59;5.88;;;3.22;;
41663;SDS011;27353;50.906;7.248;2022-08-03T00:28:24;5.25;;;3.28;;
41663;SDS011;27353;50.906;7.248;2022-08-03T00:30:50;6.20;;;3.30;;
41663;SDS011;27353;50.906;7.248;2022-08-03T00:33:16;3.53;;;3.20;;
41663;SDS011;27353;50.906;7.248;2022-08-03T00:35:42;6.50;;;3.05;;
41663;SDS011;27353;50.906;7.248;2022-08-03T00:38:07;4.47;;;3.15;;
41663;SDS011;27353;50.906;7.248;2022-08-03T00:40:33;7.53;;;3.78;;
41663;SDS011;27353;50.906;7.248;2022-08-03T00:43:03;4.90;;;2.85;;
41663;SDS011;27353;50.906;7.248;2022-08-03T00:45:33;8.03;;;4.83;;
41663;SDS011;27353;50.906;7.248;2022-08-03T00:48:00;4.18;;;3.25;;
41663;SDS011;27353;50.906;7.248;2022-08-03T00:50:28;4.47;;;3.20;;
41663;SDS011;27353;50.906;7.248;2022-08-03T00:52:56;6.05;;;3.95;;
41663;SDS011;27353;50.906;7.248;2022-08-03T00:55:22;5.00;;;3.28;;
41663;SDS011;27353;50.906;7.248;2022-08-03T00:57:49;4.80;;;3.97;;
41663;SDS011;27353;50.906;7.248;2022-08-03T01:00:16;10.75;;;3.35;;
41663;SDS011;27353;50.906;7.248;2022-08-03T01:02:44;4.60;;;3.00;;
41663;SDS011;27353;50.906;7.248;2022-08-03T01:05:10;6.18;;;3.35;;
41663;SDS011;27353;50.906;7.248;2022-08-03T01:07:53;6.72;;;4.32;;
41663;SDS011;27353;50.906;7.248;2022-08-03T01:16:08;7.65;;;3.95;;
41663;SDS011;27353;50.906;7.248;2022-08-03T01:18:51;8.95;;;3.58;;
41663;SDS011;27353;50.906;7.248;2022-08-03T01:21:33;9.05;;;3.42;;
41663;SDS011;27353;50.906;7.248;2022-08-03T01:29:55;4.63;;;3.75;;
41663;SDS011;27353;50.906;7.248;2022-08-03T01:32:47;5.45;;;4.03;;
41663;SDS011;27353;50.906;7.248;2022-08-03T01:35:36;4.13;;;3.10;;
41663;SDS011;27353;50.906;7.248;2022-08-03T01:38:10;4.78;;;3.50;;
41663;SDS011;27353;50.906;7.248;2022-08-03T01:40:39;4.53;;;3.60;;
41663;SDS011;27353;50.906;7.248;2022-08-03T01:43:06;5.88;;;3.13;;
41663;SDS011;27353;50.906;7.248;2022-08-03T01:45:34;7.38;;;4.00;;
41663;SDS011;27353;50.906;7.248;2022-08-03T01:48:01;4.10;;;3.42;;
41663;SDS011;27353;50.906;7.248;2022-08-03T01:50:28;4.93;;;2.58;;
41663;SDS011;27353;50.906;7.248;2022-08-03T01:52:55;8.63;;;4.00;;
41663;SDS011;27353;50.906;7.248;2022-08-03T01:55:23;6.00;;;3.63;;
41663;SDS011;27353;50.906;7.248;2022-08-03T01:57:52;6.45;;;4.10;;
41663;SDS011;27353;50.906;7.248;2022-08-03T02:00:19;5.30;;;4.32;;
41663;SDS011;27353;50.906;7.248;2022-08-03T02:02:46;10.38;;;4.43;;
41663;SDS011;27353;50.906;7.248;2022-08-03T02:05:14;6.65;;;3.72;;
41663;SDS011;27353;50.906;7.248;2022-08-03T02:07:42;6.30;;;3.65;;
41663;SDS011;27353;50.906;7.248;2022-08-03T02:10:10;6.80;;;3.88;;
41663;SDS011;27353;50.906;7.248;2022-08-03T02:12:40;7.03;;;3.83;;
41663;SDS011;27353;50.906;7.248;2022-08-03T02:15:09;5.70;;;4.43;;
41663;SDS011;27353;50.906;7.248;2022-08-03T02:17:36;6.97;;;4.68;;
41663;SDS011;27353;50.906;7.248;2022-08-03T02:20:03;7.03;;;3.60;;
41663;SDS011;27353;50.906;7.248;2022-08-03T02:22:30;4.10;;;3.63;;
41663;SDS011;27353;50.906;7.248;2022-08-03T02:24:57;9.00;;;4.93;;
41663;SDS011;27353;50.906;7.248;2022-08-03T02:27:25;6.28;;;4.03;;
41663;SDS011;27353;50.906;7.248;2022-08-03T02:30:04;5.65;;;4.10;;
41663;SDS011;27353;50.906;7.248;2022-08-03T02:32:35;5.53;;;3.63;;
41663;SDS011;27353;50.906;7.248;2022-08-03T02:35:03;4.65;;;4.03;;
41663;SDS011;27353;50.906;7.248;2022-08-03T02:37:34;4.05;;;3.25;;
41663;SDS011;27353;50.906;7.248;2022-08-03T02:40:06;6.03;;;3.42;;
41663;SDS011;27353;50.906;7.248;2022-08-03T02:42:34;8.55;;;4.30;;
41663;SDS011;27353;50.906;7.248;2022-08-03T02:45:02;8.50;;;3.92;;
41663;SDS011;27353;50.906;7.248;2022-08-03T02:47:30;3.72;;;3.28;;
41663;SDS011;27353;50.906;7.248;2022-08-03T02:49:58;5.38;;;3.88;;
41663;SDS011;27353;50.906;7.248;2022-08-03T02:52:27;8.10;;;4.70;;
41663;SDS011;27353;50.906;7.248;2022-08-03T02:54:55;6.45;;;4.07;;
41663;SDS011;27353;50.906;7.248;2022-08-03T02:57:25;11.63;;;6.45;;
41663;SDS011;27353;50.906;7.248;2022-08-03T02:59:54;7.65;;;4.10;;
41663;SDS011;27353;50.906;7.248;2022-08-03T03:02:20;5.22;;;3.45;;
41663;SDS011;27353;50.906;7.248;2022-08-03T03:04:47;6.57;;;5.55;;
41663;SDS011;27353;50.906;7.248;2022-08-03T03:07:15;4.47;;;3.55;;
41663;SDS011;27353;50.906;7.248;2022-08-03T03:09:42;7.25;;;4.10;;
41663;SDS011;27353;50.906;7.248;2022-08-03T03:12:08;4.97;;;3.72;;
41663;SDS011;27353;50.906;7.248;2022-08-03T03:14:36;5.05;;;3.75;;
41663;SDS011;27353;50.906;7.248;2022-08-03T03:17:03;7.45;;;4.32;;
41663;SDS011;27353;50.906;7.248;2022-08-03T03:19:33;4.53;;;4.07;;
41663;SDS011;27353;50.906;7.248;2022-08-03T03:22:01;4.20;;;3.28;;
41663;SDS011;27353;50.906;7.248;2022-08-03T03:24:28;4.60;;;3.58;;
41663;SDS011;27353;50.906;7.248;2022-08-03T03:26:55;6.25;;;3.55;;
41663;SDS011;27353;50.906;7.248;2022-08-03T03:29:21;6.10;;;3.55;;
41663;SDS011;27353;50.906;7.248;2022-08-03T03:31:47;5.15;;;3.40;;
41663;SDS011;27353;50.906;7.248;2022-08-03T03:34:13;9.38;;;4.25;;
41663;SDS011;27353;50.906;7.248;2022-08-03T03:36:39;6.00;;;4.93;;
41663;SDS011;27353;50.906;7.248;2022-08-03T03:39:05;5.47;;;4.20;;
41663;SDS011;27353;50.906;7.248;2022-08-03T03:41:30;6.63;;;4.28;;
41663;SDS011;27353;50.906;7.248;2022-08-03T03:43:56;7.20;;;4.03;;
41663;SDS011;27353;50.906;7.248;2022-08-03T03:46:23;7.35;;;3.35;;
41663;SDS011;27353;50.906;7.248;2022-08-03T03:48:49;8.48;;;3.85;;
41663;SDS011;27353;50.906;7.248;2022-08-03T03:51:15;4.00;;;3.63;;
41663;SDS011;27353;50.906;7.248;2022-08-03T03:53:52;6.00;;;4.40;;
41663;SDS011;27353;50.906;7.248;2022-08-03T03:56:26;5.45;;;3.75;;
41663;SDS011;27353;50.906;7.248;2022-08-03T03:58:52;5.43;;;4.05;;
41663;SDS011;27353;50.906;7.248;2022-08-03T04:01:20;5.20;;;3.50;;
41663;SDS011;27353;50.906;7.248;2022-08-03T04:03:46;5.55;;;4.18;;
41663;SDS011;27353;50.906;7.248;2022-08-03T04:06:12;5.93;;;4.57;;
41663;SDS011;27353;50.906;7.248;2022-08-03T04:08:56;4.55;;;3.88;;
41663;SDS011;27353;50.906;7.248;2022-08-03T04:11:28;5.55;;;3.63;;
41663;SDS011;27353;50.906;7.248;2022-08-03T04:16:45;7.40;;;3.97;;
41663;SDS011;27353;50.906;7.248;2022-08-03T04:19:16;6.15;;;3.22;;
41663;SDS011;27353;50.906;7.248;2022-08-03T04:21:53;5.20;;;4.22;;
41663;SDS011;27353;50.906;7.248;2022-08-03T04:24:23;7.47;;;3.97;;
41663;SDS011;27353;50.906;7.248;2022-08-03T04:26:53;4.63;;;3.53;;
41663;SDS011;27353;50.906;7.248;2022-08-03T04:29:20;4.78;;;3.97;;
41663;SDS011;27353;50.906;7.248;2022-08-03T04:31:49;4.05;;;3.65;;
41663;SDS011;27353;50.906;7.248;2022-08-03T04:34:15;5.50;;;3.72;;
41663;SDS011;27353;50.906;7.248;2022-08-03T04:36:47;6.88;;;4.20;;
41663;SDS011;27353;50.906;7.248;2022-08-03T04:39:17;6.38;;;3.92;;
41663;SDS011;27353;50.906;7.248;2022-08-03T04:41:55;4.78;;;4.05;;
41663;SDS011;27353;50.906;7.248;2022-08-03T04:44:24;4.97;;;3.47;;
41663;SDS011;27353;50.906;7.248;2022-08-03T04:46:50;3.55;;;3.25;;
41663;SDS011;27353;50.906;7.248;2022-08-03T04:49:19;6.30;;;3.58;;
41663;SDS011;27353;50.906;7.248;2022-08-03T04:51:46;5.18;;;4.10;;
41663;SDS011;27353;50.906;7.248;2022-08-03T04:54:13;5.32;;;3.17;;
41663;SDS011;27353;50.906;7.248;2022-08-03T04:56:40;5.20;;;3.97;;
41663;SDS011;27353;50.906;7.248;2022-08-03T04:59:07;6.20;;;4.28;;
41663;SDS011;27353;50.906;7.248;2022-08-03T05:01:33;4.22;;;3.42;;
41663;SDS011;27353;50.906;7.248;2022-08-03T05:03:58;4.90;;;3.17;;
41663;SDS011;27353;50.906;7.248;2022-08-03T05:06:24;4.47;;;3.13;;
41663;SDS011;27353;50.906;7.248;2022-08-03T05:08:50;4.15;;;2.63;;
41663;SDS011;27353;50.906;7.248;2022-08-03T05:11:16;6.40;;;2.83;;
41663;SDS011;27353;50.906;7.248;2022-08-03T05:13:43;3.58;;;3.28;;
41663;SDS011;27353;50.906;7.248;2022-08-03T05:16:09;3.10;;;2.80;;
41663;SDS011;27353;50.906;7.248;2022-08-03T05:18:35;3.65;;;3.25;;
41663;SDS011;27353;50.906;7.248;2022-08-03T05:21:01;6.63;;;3.40;;
41663;SDS011;27353;50.906;7.248;2022-08-03T05:23:27;3.35;;;2.55;;
41663;SDS011;27353;50.906;7.248;2022-08-03T05:25:53;4.47;;;3.13;;
41663;SDS011;27353;50.906;7.248;2022-08-03T05:28:19;4.47;;;2.95;;
41663;SDS011;27353;50.906;7.248;2022-08-03T05:30:45;6.93;;;3.03;;
41663;SDS011;27353;50.906;7.248;2022-08-03T05:33:10;4.18;;;3.40;;
41663;SDS011;27353;50.906;7.248;2022-08-03T05:35:36;3.88;;;2.95;;
41663;SDS011;27353;50.906;7.248;2022-08-03T05:38:03;3.70;;;2.50;;
41663;SDS011;27353;50.906;7.248;2022-08-03T05:40:30;5.45;;;3.03;;
41663;SDS011;27353;50.906;7.248;2022-08-03T05:42:55;12.50;;;2.72;;
41663;SDS011;27353;50.906;7.248;2022-08-03T05:45:22;4.10;;;3.10;;
41663;SDS011;27353;50.906;7.248;2022-08-03T05:47:48;5.38;;;3.30;;
41663;SDS011;27353;50.906;7.248;2022-08-03T05:50:15;5.13;;;3.38;;
41663;SDS011;27353;50.906;7.248;2022-08-03T05:52:43;4.20;;;3.53;;
41663;SDS011;27353;50.906;7.248;2022-08-03T05:55:09;5.57;;;3.13;;
41663;SDS011;27353;50.906;7.248;2022-08-03T05:57:35;6.97;;;3.28;;
41663;SDS011;27353;50.906;7.248;2022-08-03T06:00:06;4.72;;;3.15;;
41663;SDS011;27353;50.906;7.248;2022-08-03T06:02:33;5.13;;;2.60;;
41663;SDS011;27353;50.906;7.248;2022-08-03T06:04:59;5.22;;;2.50;;
41663;SDS011;27353;50.906;7.248;2022-08-03T06:07:24;5.65;;;2.58;;
41663;SDS011;27353;50.906;7.248;2022-08-03T06:09:51;8.30;;;2.70;;
41663;SDS011;27353;50.906;7.248;2022-08-03T06:12:17;3.92;;;2.70;;
41663;SDS011;27353;50.906;7.248;2022-08-03T06:14:43;3.95;;;2.28;;
41663;SDS011;27353;50.906;7.248;2022-08-03T06:17:08;5.13;;;2.88;;
41663;SDS011;27353;50.906;7.248;2022-08-03T06:19:34;10.60;;;2.35;;
41663;SDS011;27353;50.906;7.248;2022-08-03T06:22:00;3.97;;;2.53;;
41663;SDS011;27353;50.906;7.248;2022-08-03T06:24:25;4.78;;;2.40;;
41663;SDS011;27353;50.906;7.248;2022-08-03T06:26:51;3.67;;;1.67;;
41663;SDS011;27353;50.906;7.248;2022-08-03T06:29:17;6.88;;;2.33;;
41663;SDS011;27353;50.906;7.248;2022-08-03T06:31:42;6.00;;;2.50;;
41663;SDS011;27353;50.906;7.248;2022-08-03T06:34:08;4.45;;;2.85;;
41663;SDS011;27353;50.906;7.248;2022-08-03T06:36:34;3.10;;;2.17;;
41663;SDS011;27353;50.906;7.248;2022-08-03T06:39:00;7.10;;;2.28;;
41663;SDS011;27353;50.906;7.248;2022-08-03T06:41:26;2.92;;;2.40;;
41663;SDS011;27353;50.906;7.248;2022-08-03T06:43:52;2.92;;;2.30;;
41663;SDS011;27353;50.906;7.248;2022-08-03T06:46:19;4.38;;;1.85;;
41663;SDS011;27353;50.906;7.248;2022-08-03T06:48:45;2.53;;;2.05;;
41663;SDS011;27353;50.906;7.248;2022-08-03T06:51:11;2.35;;;1.90;;
41663;SDS011;27353;50.906;7.248;2022-08-03T06:53:36;4.30;;;2.08;;
41663;SDS011;27353;50.906;7.248;2022-08-03T06:56:05;6.10;;;1.75;;
41663;SDS011;27353;50.906;7.248;2022-08-03T06:58:32;2.97;;;1.95;;
41663;SDS011;27353;50.906;7.248;2022-08-03T07:00:58;5.82;;;2.42;;
41663;SDS011;27353;50.906;7.248;2022-08-03T07:03:24;3.33;;;1.92;;
41663;SDS011;27353;50.906;7.248;2022-08-03T07:05:49;5.30;;;2.80;;
41663;SDS011;27353;50.906;7.248;2022-08-03T07:08:15;3.67;;;2.30;;
41663;SDS011;27353;50.906;7.248;2022-08-03T07:10:42;2.10;;;1.90;;
41663;SDS011;27353;50.906;7.248;2022-08-03T07:13:08;6.60;;;3.10;;
41663;SDS011;27353;50.906;7.248;2022-08-03T07:15:34;2.13;;;1.67;;
41663;SDS011;27353;50.906;7.248;2022-08-03T07:18:00;5.25;;;2.00;;
41663;SDS011;27353;50.906;7.248;2022-08-03T07:20:25;3.45;;;1.80;;
41663;SDS011;27353;50.906;7.248;2022-08-03T07:22:51;3.15;;;2.38;;
41663;SDS011;27353;50.906;7.248;2022-08-03T07:25:17;3.92;;;2.17;;
41663;SDS011;27353;50.906;7.248;2022-08-03T07:27:46;2.30;;;2.10;;
41663;SDS011;27353;50.906;7.248;2022-08-03T07:30:13;3.30;;;1.98;;
41663;SDS011;27353;50.906;7.248;2022-08-03T07:32:39;4.75;;;1.92;;
41663;SDS011;27353;50.906;7.248;2022-08-03T07:35:05;2.15;;;1.85;;
41663;SDS011;27353;50.906;7.248;2022-08-03T07:37:31;2.70;;;2.28;;
41663;SDS011;27353;50.906;7.248;2022-08-03T07:39:58;2.03;;;1.80;;
41663;SDS011;27353;50.906;7.248;2022-08-03T07:42:25;3.75;;;2.67;;
41663;SDS011;27353;50.906;7.248;2022-08-03T07:44:51;2.80;;;2.13;;
41663;SDS011;27353;50.906;7.248;2022-08-03T07:47:18;2.80;;;2.53;;
41663;SDS011;27353;50.906;7.248;2022-08-03T07:49:44;2.45;;;2.05;;
41663;SDS011;27353;50.906;7.248;2022-08-03T07:52:10;3.70;;;2.28;;
41663;SDS011;27353;50.906;7.248;2022-08-03T07:54:54;5.22;;;2.53;;
41663;SDS011;27353;50.906;7.248;2022-08-03T07:57:19;2.97;;;2.10;;
41663;SDS011;27353;50.906;7.248;2022-08-03T07:59:45;2.53;;;1.65;;
41663;SDS011;27353;50.906;7.248;2022-08-03T08:02:11;4.50;;;2.00;;
41663;SDS011;27353;50.906;7.248;2022-08-03T08:04:38;5.68;;;2.17;;
41663;SDS011;27353;50.906;7.248;2022-08-03T08:07:03;4.00;;;2.15;;
41663;SDS011;27353;50.906;7.248;2022-08-03T08:09:29;8.32;;;2.90;;
41663;SDS011;27353;50.906;7.248;2022-08-03T08:11:54;3.92;;;1.90;;
41663;SDS011;27353;50.906;7.248;2022-08-03T08:14:20;3.20;;;2.42;;
41663;SDS011;27353;50.906;7.248;2022-08-03T08:16:46;2.53;;;2.33;;
41663;SDS011;27353;50.906;7.248;2022-08-03T08:19:12;3.85;;;2.03;;
41663;SDS011;27353;50.906;7.248;2022-08-03T08:21:40;2.65;;;1.95;;
41663;SDS011;27353;50.906;7.248;2022-08-03T08:24:07;4.63;;;2.33;;
41663;SDS011;27353;50.906;7.248;2022-08-03T08:26:33;3.13;;;2.17;;
41663;SDS011;27353;50.906;7.248;2022-08-03T08:28:58;3.80;;;1.80;;
41663;SDS011;27353;50.906;7.248;2022-08-03T08:31:24;3.30;;;2.08;;
41663;SDS011;27353;50.906;7.248;2022-08-03T08:33:50;2.53;;;1.80;;
41663;SDS011;27353;50.906;7.248;2022-08-03T08:36:15;1.90;;;1.70;;
41663;SDS011;27353;50.906;7.248;2022-08-03T08:38:41;3.17;;;1.80;;
41663;SDS011;27353;50.906;7.248;2022-08-03T08:41:09;2.85;;;1.70;;
41663;SDS011;27353;50.906;7.248;2022-08-03T08:43:35;1.95;;;1.73;;
41663;SDS011;27353;50.906;7.248;2022-08-03T08:46:01;1.63;;;1.52;;
41663;SDS011;27353;50.906;7.248;2022-08-03T08:48:27;2.40;;;1.80;;
41663;SDS011;27353;50.906;7.248;2022-08-03T08:50:54;4.40;;;1.98;;
41663;SDS011;27353;50.906;7.248;2022-08-03T08:53:22;4.57;;;1.95;;
41663;SDS011;27353;50.906;7.248;2022-08-03T08:55:50;8.15;;;2.58;;
41663;SDS011;27353;50.906;7.248;2022-08-03T08:58:19;2.78;;;1.98;;
41663;SDS011;27353;50.906;7.248;2022-08-03T09:00:47;3.90;;;2.05;;
41663;SDS011;27353;50.906;7.248;2022-08-03T09:03:13;3.70;;;2.22;;
41663;SDS011;27353;50.906;7.248;2022-08-03T09:05:41;4.40;;;2.60;;
41663;SDS011;27353;50.906;7.248;2022-08-03T09:08:07;7.78;;;2.15;;
41663;SDS011;27353;50.906;7.248;2022-08-03T09:10:33;4.85;;;1.50;;
41663;SDS011;27353;50.906;7.248;2022-08-03T09:12:59;2.03;;;1.52;;
41663;SDS011;27353;50.906;7.248;2022-08-03T09:15:26;4.63;;;1.52;;
41663;SDS011;27353;50.906;7.248;2022-08-03T09:17:55;5.97;;;1.85;;
41663;SDS011;27353;50.906;7.248;2022-08-03T09:20:23;2.78;;;2.05;;
41663;SDS011;27353;50.906;7.248;2022-08-03T09:23:09;3.05;;;1.25;;
41663;SDS011;27353;50.906;7.248;2022-08-03T09:28:15;3.72;;;1.60;;
41663;SDS011;27353;50.906;7.248;2022-08-03T09:30:42;7.25;;;1.83;;
41663;SDS011;27353;50.906;7.248;2022-08-03T09:33:12;6.75;;;2.63;;
41663;SDS011;27353;50.906;7.248;2022-08-03T09:35:46;2.28;;;1.48;;
41663;SDS011;27353;50.906;7.248;2022-08-03T09:38:18;2.83;;;1.95;;
41663;SDS011;27353;50.906;7.248;2022-08-03T09:40:50;3.30;;;1.45;;
41663;SDS011;27353;50.906;7.248;2022-08-03T09:43:16;5.28;;;1.90;;
41663;SDS011;27353;50.906;7.248;2022-08-03T09:45:42;4.15;;;1.80;;
41663;SDS011;27353;50.906;7.248;2022-08-03T09:48:21;2.55;;;1.58;;
41663;SDS011;27353;50.906;7.248;2022-08-03T09:50:51;4.15;;;1.80;;
41663;SDS011;27353;50.906;7.248;2022-08-03T09:53:18;4.03;;;2.28;;
41663;SDS011;27353;50.906;7.248;2022-08-03T09:55:55;2.28;;;1.52;;
41663;SDS011;27353;50.906;7.248;2022-08-03T09:58:21;4.85;;;1.77;;
41663;SDS011;27353;50.906;7.248;2022-08-03T10:03:19;3.83;;;1.52;;
41663;SDS011;27353;50.906;7.248;2022-08-03T10:05:45;4.03;;;1.33;;
41663;SDS011;27353;50.906;7.248;2022-08-03T10:08:14;4.32;;;1.83;;
41663;SDS011;27353;50.906;7.248;2022-08-03T10:13:07;2.38;;;1.63;;
41663;SDS011;27353;50.906;7.248;2022-08-03T10:15:38;2.67;;;1.48;;
41663;SDS011;27353;50.906;7.248;2022-08-03T10:18:04;5.32;;;1.65;;
41663;SDS011;27353;50.906;7.248;2022-08-03T10:20:31;6.07;;;2.38;;
41663;SDS011;27353;50.906;7.248;2022-08-03T10:23:13;2.53;;;2.00;;
41663;SDS011;27353;50.906;7.248;2022-08-03T10:25:41;4.63;;;1.77;;
41663;SDS011;27353;50.906;7.248;2022-08-03T10:28:11;2.40;;;1.77;;
41663;SDS011;27353;50.906;7.248;2022-08-03T10:30:40;4.63;;;1.83;;
41663;SDS011;27353;50.906;7.248;2022-08-03T10:33:14;7.60;;;1.48;;
41663;SDS011;27353;50.906;7.248;2022-08-03T10:35:43;4.30;;;1.52;;
41663;SDS011;27353;50.906;7.248;2022-08-03T10:38:15;3.97;;;1.73;;
41663;SDS011;27353;50.906;7.248;2022-08-03T10:40:48;2.88;;;1.65;;
41663;SDS011;27353;50.906;7.248;2022-08-03T10:43:18;5.20;;;1.27;;
41663;SDS011;27353;50.906;7.248;2022-08-03T10:45:46;5.53;;;1.70;;
41663;SDS011;27353;50.906;7.248;2022-08-03T10:48:13;1.67;;;1.33;;
41663;SDS011;27353;50.906;7.248;2022-08-03T10:50:40;2.30;;;1.58;;
41663;SDS011;27353;50.906;7.248;2022-08-03T10:53:07;5.00;;;2.08;;
41663;SDS011;27353;50.906;7.248;2022-08-03T10:55:33;3.20;;;1.98;;
41663;SDS011;27353;50.906;7.248;2022-08-03T11:01:06;7.40;;;3.10;;
41663;SDS011;27353;50.906;7.248;2022-08-03T11:06:20;3.28;;;2.15;;
41663;SDS011;27353;50.906;7.248;2022-08-03T11:08:47;4.95;;;2.20;;
41663;SDS011;27353;50.906;7.248;2022-08-03T11:14:05;7.45;;;2.80;;
41663;SDS011;27353;50.906;7.248;2022-08-03T11:19:01;3.28;;;1.40;;
41663;SDS011;27353;50.906;7.248;2022-08-03T11:51:01;2.33;;;1.73;;
41663;SDS011;27353;50.906;7.248;2022-08-03T11:53:28;7.53;;;2.75;;
41663;SDS011;27353;50.906;7.248;2022-08-03T11:55:57;5.75;;;2.65;;
41663;SDS011;27353;50.906;7.248;2022-08-03T11:58:24;3.78;;;2.30;;
41663;SDS011;27353;50.906;7.248;2022-08-03T12:00:50;3.22;;;1.85;;
41663;SDS011;27353;50.906;7.248;2022-08-03T12:03:17;4.15;;;2.65;;
41663;SDS011;27353;50.906;7.248;2022-08-03T12:05:44;5.47;;;3.38;;
41663;SDS011;27353;50.906;7.248;2022-08-03T12:08:16;5.28;;;2.95;;
41663;SDS011;27353;50.906;7.248;2022-08-03T12:10:53;3.72;;;2.20;;
41663;SDS011;27353;50.906;7.248;2022-08-03T12:13:20;6.07;;;1.92;;
41663;SDS011;27353;50.906;7.248;2022-08-03T12:15:54;4.93;;;2.10;;
41663;SDS011;27353;50.906;7.248;2022-08-03T12:18:21;5.82;;;2.42;;
41663;SDS011;27353;50.906;7.248;2022-08-03T12:20:48;3.35;;;2.13;;
41663;SDS011;27353;50.906;7.248;2022-08-03T12:23:15;3.08;;;2.63;;
41663;SDS011;27353;50.906;7.248;2022-08-03T12:25:41;8.23;;;2.60;;
41663;SDS011;27353;50.906;7.248;2022-08-03T12:28:09;5.32;;;1.73;;
41663;SDS011;27353;50.906;7.248;2022-08-03T12:30:40;4.07;;;1.85;;
41663;SDS011;27353;50.906;7.248;2022-08-03T12:36:27;2.70;;;1.77;;
41663;SDS011;27353;50.906;7.248;2022-08-03T12:38:54;5.05;;;2.65;;
41663;SDS011;27353;50.906;7.248;2022-08-03T12:41:26;5.88;;;2.25;;
41663;SDS011;27353;50.906;7.248;2022-08-03T12:43:53;6.63;;;2.60;;
41663;SDS011;27353;50.906;7.248;2022-08-03T12:46:19;2.72;;;2.25;;
41663;SDS011;27353;50.906;7.248;2022-08-03T12:48:57;6.40;;;2.50;;
41663;SDS011;27353;50.906;7.248;2022-08-03T12:52:12;2.60;;;1.80;;
41663;SDS011;27353;50.906;7.248;2022-08-03T12:54:17;5.38;;;2.55;;
41663;SDS011;27353;50.906;7.248;2022-08-03T12:57:03;4.90;;;2.17;;
41663;SDS011;27353;50.906;7.248;2022-08-03T13:04:48;6.28;;;2.72;;
41663;SDS011;27353;50.906;7.248;2022-08-03T13:07:15;7.80;;;2.33;;
41663;SDS011;27353;50.906;7.248;2022-08-03T13:09:47;7.50;;;2.50;;
41663;SDS011;27353;50.906;7.248;2022-08-03T13:12:18;3.58;;;2.65;;
41663;SDS011;27353;50.906;7.248;2022-08-03T13:14:45;3.45;;;2.72;;
41663;SDS011;27353;50.906;7.248;2022-08-03T13:17:12;9.15;;;2.17;;
41663;SDS011;27353;50.906;7.248;2022-08-03T13:19:38;5.00;;;2.78;;
41663;SDS011;27353;50.906;7.248;2022-08-03T13:24:40;7.30;;;2.92;;
41663;SDS011;27353;50.906;7.248;2022-08-03T13:27:07;6.68;;;3.75;;
41663;SDS011;27353;50.906;7.248;2022-08-03T13:29:33;3.38;;;2.60;;
41663;SDS011;27353;50.906;7.248;2022-08-03T13:31:59;3.50;;;2.50;;
41663;SDS011;27353;50.906;7.248;2022-08-03T13:34:25;3.35;;;1.83;;
41663;SDS011;27353;50.906;7.248;2022-08-03T13:36:51;4.57;;;3.15;;
41663;SDS011;27353;50.906;7.248;2022-08-03T13:39:17;4.95;;;2.58;;
41663;SDS011;27353;50.906;7.248;2022-08-03T13:41:44;3.90;;;2.70;;
41663;SDS011;27353;50.906;7.248;2022-08-03T13:44:09;3.28;;;1.92;;
41663;SDS011;27353;50.906;7.248;2022-08-03T13:46:35;4.53;;;2.65;;
41663;SDS011;27353;50.906;7.248;2022-08-03T13:49:01;3.55;;;2.05;;
41663;SDS011;27353;50.906;7.248;2022-08-03T13:51:26;5.82;;;2.45;;
41663;SDS011;27353;50.906;7.248;2022-08-03T13:53:52;5.53;;;2.30;;
41663;SDS011;27353;50.906;7.248;2022-08-03T13:56:17;3.33;;;2.03;;
41663;SDS011;27353;50.906;7.248;2022-08-03T13:58:43;4.20;;;2.55;;
41663;SDS011;27353;50.906;7.248;2022-08-03T14:01:09;4.05;;;2.67;;
41663;SDS011;27353;50.906;7.248;2022-08-03T14:03:35;4.00;;;2.13;;
41663;SDS011;27353;50.906;7.248;2022-08-03T14:06:00;5.88;;;2.00;;
41663;SDS011;27353;50.906;7.248;2022-08-03T14:08:26;8.82;;;2.70;;
41663;SDS011;27353;50.906;7.248;2022-08-03T14:10:52;6.47;;;1.73;;
41663;SDS011;27353;50.906;7.248;2022-08-03T14:13:17;3.92;;;1.80;;
41663;SDS011;27353;50.906;7.248;2022-08-03T14:15:43;4.38;;;2.47;;
41663;SDS011;27353;50.906;7.248;2022-08-03T14:18:09;9.73;;;2.78;;
41663;SDS011;27353;50.906;7.248;2022-08-03T14:20:35;5.30;;;2.53;;
41663;SDS011;27353;50.906;7.248;2022-08-03T14:23:01;7.75;;;2.88;;
41663;SDS011;27353;50.906;7.248;2022-08-03T14:25:26;5.07;;;2.05;;
41663;SDS011;27353;50.906;7.248;2022-08-03T14:27:52;6.03;;;2.08;;
41663;SDS011;27353;50.906;7.248;2022-08-03T14:30:18;3.72;;;2.17;;
41663;SDS011;27353;50.906;7.248;2022-08-03T14:32:43;3.13;;;2.03;;
41663;SDS011;27353;50.906;7.248;2022-08-03T14:35:10;3.90;;;1.83;;
41663;SDS011;27353;50.906;7.248;2022-08-03T14:37:35;3.28;;;2.00;;
41663;SDS011;27353;50.906;7.248;2022-08-03T14:40:01;4.50;;;1.77;;
41663;SDS011;27353;50.906;7.248;2022-08-03T14:42:27;7.80;;;2.67;;
41663;SDS011;27353;50.906;7.248;2022-08-03T14:44:52;4.70;;;2.08;;
41663;SDS011;27353;50.906;7.248;2022-08-03T14:47:18;4.53;;;2.17;;
41663;SDS011;27353;50.906;7.248;2022-08-03T14:49:44;5.05;;;2.30;;
41663;SDS011;27353;50.906;7.248;2022-08-03T14:52:09;4.07;;;2.40;;
41663;SDS011;27353;50.906;7.248;2022-08-03T14:54:35;3.85;;;1.70;;
41663;SDS011;27353;50.906;7.248;2022-08-03T14:57:00;4.38;;;2.58;;
41663;SDS011;27353;50.906;7.248;2022-08-03T14:59:26;4.20;;;1.98;;
41663;SDS011;27353;50.906;7.248;2022-08-03T15:01:52;7.88;;;2.55;;
41663;SDS011;27353;50.906;7.248;2022-08-03T15:04:18;10.65;;;2.40;;
41663;SDS011;27353;50.906;7.248;2022-08-03T15:06:44;4.45;;;2.20;;
41663;SDS011;27353;50.906;7.248;2022-08-03T15:09:09;5.63;;;2.00;;
41663;SDS011;27353;50.906;7.248;2022-08-03T15:11:35;4.30;;;1.90;;
41663;SDS011;27353;50.906;7.248;2022-08-03T15:14:00;3.38;;;2.30;;
41663;SDS011;27353;50.906;7.248;2022-08-03T15:16:26;3.67;;;2.45;;
41663;SDS011;27353;50.906;7.248;2022-08-03T15:18:52;6.53;;;3.88;;
41663;SDS011;27353;50.906;7.248;2022-08-03T15:21:18;5.47;;;1.73;;
41663;SDS011;27353;50.906;7.248;2022-08-03T15:23:43;6.57;;;2.63;;
41663;SDS011;27353;50.906;7.248;2022-08-03T15:26:09;3.60;;;1.83;;
41663;SDS011;27353;50.906;7.248;2022-08-03T15:28:35;4.88;;;2.15;;
41663;SDS011;27353;50.906;7.248;2022-08-03T15:31:00;3.05;;;1.77;;
41663;SDS011;27353;50.906;7.248;2022-08-03T15:33:26;3.00;;;1.92;;
41663;SDS011;27353;50.906;7.248;2022-08-03T15:35:52;2.83;;;1.77;;
41663;SDS011;27353;50.906;7.248;2022-08-03T15:38:18;4.90;;;2.92;;
41663;SDS011;27353;50.906;7.248;2022-08-03T15:40:47;2.70;;;1.17;;
41663;SDS011;27353;50.906;7.248;2022-08-03T15:43:12;3.33;;;2.00;;
41663;SDS011;27353;50.906;7.248;2022-08-03T15:45:38;2.83;;;2.25;;
41663;SDS011;27353;50.906;7.248;2022-08-03T15:48:04;3.00;;;1.75;;
41663;SDS011;27353;50.906;7.248;2022-08-03T15:50:30;4.13;;;2.08;;
41663;SDS011;27353;50.906;7.248;2022-08-03T15:52:56;4.22;;;2.65;;
41663;SDS011;27353;50.906;7.248;2022-08-03T15:55:22;6.10;;;2.15;;
41663;SDS011;27353;50.906;7.248;2022-08-03T15:57:47;7.18;;;4.25;;
41663;SDS011;27353;50.906;7.248;2022-08-03T16:00:13;9.00;;;3.22;;
41663;SDS011;27353;50.906;7.248;2022-08-03T16:02:39;4.55;;;1.75;;
41663;SDS011;27353;50.906;7.248;2022-08-03T16:05:05;3.50;;;2.10;;